Time;durP1;ratioP1;P1;durP2;ratioP2;P2;SDS_P1;SDS_P2;PMS_P1;PMS_P2;Temp;Humidity;BMP_temperature;BMP_pressure;BME280_temperature;BME280_humidity;BME280_pressure;Samples;Min_cycle;Max_cycle;Signal;HPM_P1;HPM_P2
2023/07/28 00:02:13;;;;;;;5.20;4.63;;;16.30;99.90;;;;;;5001841;28;20566;-71
2023/07/28 00:04:41;;;;;;;5.00;4.70;;;16.30;99.90;;;;;;5003031;28;20212;-71
2023/07/28 00:07:08;;;;;;;5.60;5.03;;;16.30;99.90;;;;;;5006253;28;20192;-71
2023/07/28 00:09:35;;;;;;;6.50;5.00;;;16.30;99.90;;;;;;5002678;28;20423;-71
2023/07/28 00:12:02;;;;;;;5.47;4.97;;;16.30;99.90;;;;;;5004983;28;20460;-71
2023/07/28 00:14:29;;;;;;;4.80;4.50;;;16.30;99.90;;;;;;4999302;28;20219;-71
2023/07/28 00:16:58;;;;;;;5.30;4.80;;;16.30;99.90;;;;;;5005542;28;20730;-71
2023/07/28 00:19:25;;;;;;;5.20;4.80;;;16.30;99.90;;;;;;5003869;28;20185;-72
2023/07/28 00:21:53;;;;;;;5.57;5.17;;;16.30;99.90;;;;;;5005006;28;20918;-71
2023/07/28 00:24:20;;;;;;;5.20;4.70;;;16.20;99.90;;;;;;5001166;28;20220;-72
2023/07/28 00:26:47;;;;;;;5.47;5.07;;;16.20;99.90;;;;;;5001432;28;20882;-72
2023/07/28 00:29:13;;;;;;;5.43;4.93;;;16.20;99.90;;;;;;4988269;28;20201;-72
2023/07/28 00:31:40;;;;;;;5.70;5.20;;;16.20;99.90;;;;;;4985316;28;20263;-72
2023/07/28 00:34:08;;;;;;;5.30;4.90;;;16.20;99.90;;;;;;5005102;28;20319;-72
2023/07/28 00:36:35;;;;;;;5.90;5.33;;;16.20;99.90;;;;;;4987244;28;20857;-72
2023/07/28 00:39:03;;;;;;;5.30;4.90;;;16.20;99.90;;;;;;5002364;28;20189;-72
2023/07/28 00:41:30;;;;;;;4.80;4.50;;;16.20;99.90;;;;;;4983564;28;20201;-72
2023/07/28 00:43:57;;;;;;;5.23;4.83;;;16.20;99.90;;;;;;5005620;28;20708;-72
2023/07/28 00:46:24;;;;;;;5.10;4.70;;;16.20;99.90;;;;;;5002710;28;20192;-71
2023/07/28 00:48:52;;;;;;;5.43;5.03;;;16.20;99.90;;;;;;4984509;28;20205;-72
2023/07/28 00:51:19;;;;;;;5.80;5.30;;;16.20;99.90;;;;;;5003672;28;20204;-70
2023/07/28 00:53:46;;;;;;;4.80;4.40;;;16.20;99.90;;;;;;5002097;28;20219;-71
2023/07/28 00:56:15;;;;;;;4.40;4.10;;;16.20;99.90;;;;;;5003945;28;20201;-70
2023/07/28 00:58:42;;;;;;;4.93;4.63;;;16.20;99.90;;;;;;5001012;28;20958;-70
2023/07/28 01:01:09;;;;;;;4.63;4.23;;;16.20;99.90;;;;;;4997960;28;20208;-70
2023/07/28 01:03:36;;;;;;;4.63;4.23;;;16.20;99.90;;;;;;5000360;28;20220;-70
2023/07/28 01:06:15;;;;;;;5.10;4.70;;;16.20;99.90;;;;;;4988417;28;20209;-71
2023/07/28 01:08:48;;;;;;;5.03;4.70;;;16.20;99.90;;;;;;4972182;28;20207;-71
2023/07/28 01:11:16;;;;;;;4.70;4.40;;;16.20;99.90;;;;;;4996458;28;20193;-71
2023/07/28 01:13:43;;;;;;;5.07;4.63;;;16.20;99.90;;;;;;4986865;28;20216;-71
2023/07/28 01:16:10;;;;;;;4.43;4.10;;;16.20;99.90;;;;;;5000457;28;20271;-71
2023/07/28 01:18:37;;;;;;;4.70;4.30;;;16.20;99.90;;;;;;4997353;28;20204;-70
2023/07/28 01:21:08;;;;;;;4.57;4.27;;;16.20;99.90;;;;;;5004535;28;20189;-71
2023/07/28 01:23:43;;;;;;;4.73;4.33;;;16.30;99.90;;;;;;4981530;28;20982;-70
2023/07/28 01:26:12;;;;;;;4.47;4.07;;;16.30;99.90;;;;;;4983654;28;20258;-70
2023/07/28 01:28:42;;;;;;;5.37;4.87;;;16.30;99.90;;;;;;5001885;28;20185;-71
2023/07/28 01:31:09;;;;;;;4.50;4.20;;;16.20;99.90;;;;;;5004957;28;20200;-70
2023/07/28 01:33:36;;;;;;;4.30;4.00;;;16.20;99.90;;;;;;4996222;28;20450;-70
2023/07/28 01:36:03;;;;;;;4.30;3.90;;;16.20;99.90;;;;;;4994857;28;20197;-70
2023/07/28 01:38:31;;;;;;;4.80;4.50;;;16.20;99.90;;;;;;4989111;28;20929;-70
2023/07/28 01:40:58;;;;;;;4.70;4.30;;;16.20;99.90;;;;;;4986754;28;20237;-70
2023/07/28 01:43:24;;;;;;;4.40;4.00;;;16.20;99.90;;;;;;4984505;28;20221;-70
2023/07/28 01:45:53;;;;;;;4.13;3.83;;;16.20;99.90;;;;;;4986572;28;20204;-70
2023/07/28 01:48:20;;;;;;;4.20;3.90;;;16.20;99.90;;;;;;4998157;28;20197;-70
2023/07/28 01:50:47;;;;;;;4.23;3.83;;;16.20;99.90;;;;;;5001677;28;20189;-70
2023/07/28 01:53:13;;;;;;;3.87;3.60;;;16.20;99.90;;;;;;4986470;28;20777;-70
2023/07/28 01:55:40;;;;;;;3.87;3.67;;;16.30;99.90;;;;;;5001384;28;20200;-70
2023/07/28 01:58:06;;;;;;;4.33;4.00;;;16.30;99.90;;;;;;4986880;28;20188;-70
2023/07/28 02:00:33;;;;;;;4.17;3.83;;;16.20;99.90;;;;;;4977638;28;20533;-70
2023/07/28 02:03:03;;;;;;;4.17;3.87;;;16.20;99.90;;;;;;4972400;28;20416;-70
2023/07/28 02:05:30;;;;;;;4.00;3.80;;;16.20;99.90;;;;;;4999245;28;20564;-70
2023/07/28 02:07:57;;;;;;;4.13;3.83;;;16.20;99.90;;;;;;4982601;28;20517;-71
2023/07/28 02:10:25;;;;;;;4.40;4.10;;;16.20;99.90;;;;;;5004049;28;20196;-71
2023/07/28 02:12:52;;;;;;;4.10;3.80;;;16.20;99.90;;;;;;4976668;28;20209;-70
2023/07/28 02:15:19;;;;;;;3.83;3.60;;;16.20;99.90;;;;;;5004116;28;20656;-71
2023/07/28 02:17:46;;;;;;;3.80;3.60;;;16.20;99.90;;;;;;4984546;28;20196;-71
2023/07/28 02:20:15;;;;;;;4.20;3.80;;;16.20;99.90;;;;;;5002591;28;20369;-71
2023/07/28 02:22:42;;;;;;;3.90;3.70;;;16.20;99.90;;;;;;5002793;28;20203;-71
2023/07/28 02:25:09;;;;;;;4.10;3.80;;;16.20;99.90;;;;;;4978614;28;20665;-71
2023/07/28 02:27:36;;;;;;;4.23;3.93;;;16.20;99.90;;;;;;5003658;28;20247;-71
2023/07/28 02:30:04;;;;;;;5.30;4.90;;;16.20;99.90;;;;;;4983405;28;20207;-71
2023/07/28 02:32:31;;;;;;;4.83;4.53;;;16.20;99.90;;;;;;4983072;28;20190;-71
2023/07/28 02:34:58;;;;;;;5.00;4.60;;;16.20;99.90;;;;;;4979634;28;20422;-71
2023/07/28 02:37:27;;;;;;;5.13;4.70;;;16.20;99.90;;;;;;4978984;28;20208;-72
2023/07/28 02:39:54;;;;;;;5.57;5.17;;;16.10;99.90;;;;;;4999780;28;20565;-72
2023/07/28 02:42:21;;;;;;;5.63;5.23;;;16.10;99.90;;;;;;4986283;28;20204;-72
2023/07/28 02:44:47;;;;;;;4.97;4.67;;;16.10;99.90;;;;;;5001249;28;20311;-73
2023/07/28 02:47:14;;;;;;;5.77;5.23;;;16.10;99.90;;;;;;4982997;28;20189;-73
2023/07/28 02:49:43;;;;;;;4.83;4.30;;;16.10;99.90;;;;;;4981468;28;20200;-73
2023/07/28 02:52:09;;;;;;;5.10;4.70;;;16.10;99.90;;;;;;4984253;28;20197;-72
2023/07/28 02:54:38;;;;;;;5.33;4.73;;;16.10;99.90;;;;;;5003551;28;20205;-72
2023/07/28 02:57:05;;;;;;;4.93;4.63;;;16.10;99.90;;;;;;4984586;28;20193;-72
2023/07/28 02:59:32;;;;;;;4.50;4.10;;;16.10;99.90;;;;;;4986840;28;20289;-72
2023/07/28 03:01:59;;;;;;;4.67;4.30;;;16.10;99.90;;;;;;5001353;28;20200;-72
2023/07/28 03:04:26;;;;;;;3.53;3.33;;;16.10;99.90;;;;;;5007384;28;20577;-71
2023/07/28 03:07:15;;;;;;;3.60;3.40;;;16.10;99.90;;;;;;5006314;28;20340;-71
2023/07/28 03:09:46;;;;;;;3.80;3.50;;;16.10;99.90;;;;;;5001976;28;20280;-71
2023/07/28 03:12:13;;;;;;;3.90;3.60;;;16.10;99.90;;;;;;4999246;28;20283;-71
2023/07/28 03:14:40;;;;;;;3.20;3.00;;;16.10;99.90;;;;;;5001327;28;20204;-72
2023/07/28 03:17:07;;;;;;;3.00;2.80;;;16.10;99.90;;;;;;5000295;28;20195;-72
2023/07/28 03:19:34;;;;;;;3.23;3.03;;;16.10;99.90;;;;;;5001033;28;20200;-72
2023/07/28 03:22:01;;;;;;;3.33;3.07;;;16.10;99.90;;;;;;5004778;28;20556;-72
2023/07/28 03:24:28;;;;;;;3.37;3.17;;;16.10;99.90;;;;;;5004182;28;20221;-72
2023/07/28 03:26:56;;;;;;;3.60;3.20;;;16.10;99.90;;;;;;4985835;28;20201;-72
2023/07/28 03:29:23;;;;;;;3.07;2.87;;;16.10;99.90;;;;;;5002727;28;20200;-72
2023/07/28 03:31:51;;;;;;;4.20;3.17;;;16.10;99.90;;;;;;5006940;28;20220;-72
2023/07/28 03:34:18;;;;;;;3.07;2.87;;;16.10;99.90;;;;;;5025163;28;20664;-72
2023/07/28 03:36:46;;;;;;;2.77;2.57;;;16.10;99.90;;;;;;5001393;28;20192;-72
2023/07/28 03:39:14;;;;;;;3.33;3.03;;;16.10;99.90;;;;;;5026563;28;20628;-72
2023/07/28 03:41:41;;;;;;;2.93;2.73;;;16.10;99.90;;;;;;5006175;28;20200;-72
2023/07/28 03:44:09;;;;;;;3.37;3.17;;;16.10;99.90;;;;;;5008838;28;20216;-72
2023/07/28 03:46:36;;;;;;;3.43;3.23;;;16.10;99.90;;;;;;5021314;28;20773;-72
2023/07/28 03:49:03;;;;;;;3.00;2.80;;;16.10;99.90;;;;;;5004151;28;20207;-71
2023/07/28 03:51:29;;;;;;;3.50;3.10;;;16.10;99.90;;;;;;5005234;28;20572;-71
2023/07/28 03:53:56;;;;;;;2.97;2.77;;;16.10;99.90;;;;;;5026428;28;20208;-72
2023/07/28 03:56:23;;;;;;;3.60;3.40;;;16.10;99.90;;;;;;5006361;28;20617;-71
2023/07/28 03:58:50;;;;;;;4.10;3.83;;;16.10;99.90;;;;;;5005020;28;20416;-72
2023/07/28 04:01:18;;;;;;;4.40;4.10;;;16.10;99.90;;;;;;4973355;28;20274;-72
2023/07/28 04:03:45;;;;;;;4.50;4.20;;;16.10;99.90;;;;;;4985444;28;20212;-72
2023/07/28 04:06:12;;;;;;;4.27;3.97;;;16.10;99.90;;;;;;4988517;28;20236;-72
2023/07/28 04:08:39;;;;;;;4.37;4.07;;;16.00;99.90;;;;;;4981174;28;21617;-71
2023/07/28 04:11:06;;;;;;;4.83;4.00;;;16.00;99.90;;;;;;4998553;28;20199;-72
2023/07/28 04:13:34;;;;;;;4.50;4.20;;;16.00;99.90;;;;;;4996094;28;20217;-71
2023/07/28 04:16:01;;;;;;;4.80;4.40;;;16.00;99.90;;;;;;4982365;28;20203;-72
2023/07/28 04:18:31;;;;;;;8.33;4.43;;;16.00;99.90;;;;;;5004877;28;20197;-72
2023/07/28 04:20:58;;;;;;;4.10;3.80;;;16.00;99.90;;;;;;4988678;28;20247;-72
2023/07/28 04:23:25;;;;;;;4.60;4.30;;;16.00;99.90;;;;;;4992495;28;20204;-71
2023/07/28 04:25:52;;;;;;;4.73;4.23;;;16.00;99.90;;;;;;4997379;28;20247;-72
2023/07/28 04:28:19;;;;;;;4.73;4.43;;;16.00;99.90;;;;;;4988313;28;20193;-71
2023/07/28 04:30:46;;;;;;;4.77;4.47;;;16.10;99.90;;;;;;4970366;28;20213;-71
2023/07/28 04:33:33;;;;;;;4.90;4.60;;;16.00;99.90;;;;;;4982948;28;20720;-72
2023/07/28 04:36:03;;;;;;;4.60;4.30;;;16.10;99.90;;;;;;4980911;28;20459;-71
2023/07/28 04:38:35;;;;;;;4.40;4.10;;;16.10;99.90;;;;;;4990415;28;20224;-71
2023/07/28 04:41:02;;;;;;;5.00;4.60;;;16.10;99.90;;;;;;4982607;28;20213;-71
2023/07/28 04:43:47;;;;;;;5.07;4.70;;;16.10;99.90;;;;;;4976955;28;20316;-71
2023/07/28 04:46:13;;;;;;;4.73;4.17;;;16.20;99.90;;;;;;4994841;28;20259;-71
2023/07/28 04:48:43;;;;;;;4.73;4.43;;;16.20;99.90;;;;;;4968387;28;20208;-72
2023/07/28 04:51:30;;;;;;;5.17;4.10;;;16.20;99.90;;;;;;4965607;28;20319;-72
2023/07/28 04:54:30;;;;;;;5.03;4.73;;;16.20;99.90;;;;;;4999184;28;20311;-71
2023/07/28 04:56:56;;;;;;;4.70;4.40;;;16.30;99.90;;;;;;4979003;28;21073;-70
2023/07/28 04:59:30;;;;;;;5.10;4.60;;;16.30;99.90;;;;;;4973815;28;20707;-70
2023/07/28 05:01:57;;;;;;;4.80;4.50;;;16.30;99.90;;;;;;4985471;28;20211;-71
2023/07/28 05:04:25;;;;;;;5.30;4.90;;;16.30;99.90;;;;;;4985941;28;20227;-72
2023/07/28 05:14:31;;;;;;;5.80;4.70;;;16.40;99.90;;;;;;4984016;28;20207;-69
2023/07/28 05:16:58;;;;;;;5.50;5.10;;;16.40;99.90;;;;;;4985961;28;20233;-70
2023/07/28 05:19:43;;;;;;;5.40;5.00;;;16.40;99.90;;;;;;4958806;28;20312;-69
2023/07/28 05:22:32;;;;;;;5.40;4.90;;;16.40;99.90;;;;;;4973097;28;20216;-69
2023/07/28 05:24:59;;;;;;;5.83;5.37;;;16.40;99.90;;;;;;4968756;28;20228;-70
2023/07/28 05:27:29;;;;;;;6.60;6.10;;;16.50;99.90;;;;;;4983324;28;20736;-69
2023/07/28 05:29:56;;;;;;;6.93;6.33;;;16.50;99.90;;;;;;4981808;28;20252;-70
2023/07/28 05:32:23;;;;;;;6.60;6.07;;;16.50;99.90;;;;;;4990268;28;20602;-69
2023/07/28 05:35:10;;;;;;;6.17;4.93;;;16.50;99.90;;;;;;4973233;28;20449;-69
2023/07/28 05:37:37;;;;;;;6.93;6.37;;;16.60;99.90;;;;;;4972410;28;20576;-69
2023/07/28 05:40:05;;;;;;;6.73;6.23;;;16.60;99.90;;;;;;4989876;28;20842;-69
2023/07/28 05:42:34;;;;;;;6.67;6.07;;;16.60;99.90;;;;;;4985861;28;20201;-70
2023/07/28 05:45:00;;;;;;;6.70;6.10;;;16.60;99.90;;;;;;4973019;28;20796;-69
2023/07/28 05:47:28;;;;;;;6.87;6.30;;;16.70;99.90;;;;;;4981563;28;20224;-69
2023/07/28 05:49:55;;;;;;;6.80;6.20;;;16.70;99.90;;;;;;4979798;28;20213;-70
2023/07/28 05:52:23;;;;;;;6.57;5.97;;;16.70;99.90;;;;;;4963829;28;20209;-69
2023/07/28 05:54:50;;;;;;;7.00;6.40;;;16.80;99.90;;;;;;4997175;28;20217;-71
2023/07/28 05:57:17;;;;;;;7.50;6.80;;;16.80;99.90;;;;;;4981375;28;20609;-69
2023/07/28 05:59:44;;;;;;;6.97;6.47;;;16.90;99.90;;;;;;4997041;28;20200;-71
2023/07/28 06:02:11;;;;;;;6.50;5.90;;;16.80;99.90;;;;;;4996305;28;20193;-70
2023/07/28 06:04:56;;;;;;;6.97;6.40;;;16.80;99.90;;;;;;4981818;28;20221;-69
2023/07/28 06:07:26;;;;;;;7.90;6.40;;;16.90;99.90;;;;;;4975015;28;20220;-69
2023/07/28 06:09:53;;;;;;;7.07;6.57;;;16.90;99.90;;;;;;4992588;28;20212;-71
2023/07/28 06:12:19;;;;;;;6.07;5.67;;;16.90;99.90;;;;;;4974598;28;20200;-69
2023/07/28 06:14:46;;;;;;;7.47;6.10;;;17.00;99.90;;;;;;4985146;28;20232;-71
2023/07/28 06:17:13;;;;;;;6.67;6.07;;;17.00;99.90;;;;;;4992203;28;20603;-71
2023/07/28 06:19:40;;;;;;;6.70;6.10;;;17.00;99.90;;;;;;4972385;28;20211;-70
2023/07/28 06:22:07;;;;;;;6.93;6.27;;;17.10;99.90;;;;;;4968657;28;20197;-70
2023/07/28 06:24:40;;;;;;;6.83;6.23;;;17.00;99.90;;;;;;4975117;28;20382;-68
2023/07/28 06:27:08;;;;;;;6.40;5.83;;;17.00;99.90;;;;;;4986411;28;20699;-68
2023/07/28 06:29:37;;;;;;;6.83;6.23;;;17.00;99.90;;;;;;4995933;28;20193;-68
2023/07/28 06:32:05;;;;;;;7.03;6.43;;;17.00;99.90;;;;;;4987955;28;20197;-68
2023/07/28 06:34:32;;;;;;;6.07;5.57;;;17.00;99.90;;;;;;4975774;28;20225;-67
2023/07/28 06:36:59;;;;;;;6.37;5.80;;;17.20;99.90;;;;;;4971601;28;20208;-68
2023/07/28 06:39:26;;;;;;;5.30;4.80;;;17.20;99.90;;;;;;4989525;28;20199;-68
2023/07/28 06:41:55;;;;;;;4.77;4.47;;;17.20;99.90;;;;;;5001788;28;20624;-67
2023/07/28 06:44:22;;;;;;;6.07;5.57;;;17.20;99.90;;;;;;4982765;28;20227;-68
2023/07/28 06:46:49;;;;;;;4.60;4.30;;;17.30;99.90;;;;;;4990557;28;20217;-67
2023/07/28 06:49:16;;;;;;;5.40;4.90;;;17.40;99.90;;;;;;4986211;28;20648;-67
2023/07/28 06:51:42;;;;;;;5.47;4.50;;;17.40;99.90;;;;;;4991414;28;20196;-68
2023/07/28 06:54:12;;;;;;;5.17;4.60;;;17.40;99.90;;;;;;4959338;28;20224;-68
2023/07/28 06:56:40;;;;;;;5.10;4.80;;;17.50;99.90;;;;;;4976756;28;21395;-67
2023/07/28 06:59:08;;;;;;;5.00;4.47;;;17.50;99.90;;;;;;4985235;28;20722;-67
2023/07/28 07:01:35;;;;;;;5.30;4.90;;;17.50;99.90;;;;;;4968680;28;20212;-67
2023/07/28 07:04:04;;;;;;;5.97;4.93;;;17.50;99.90;;;;;;4996145;28;20700;-68
2023/07/28 07:06:31;;;;;;;4.70;4.30;;;17.50;99.90;;;;;;4975202;28;20297;-68
2023/07/28 07:08:58;;;;;;;5.20;4.80;;;17.60;99.90;;;;;;4986669;28;20215;-67
2023/07/28 07:11:25;;;;;;;5.50;5.00;;;17.70;99.90;;;;;;4981199;28;20545;-67
2023/07/28 07:13:52;;;;;;;5.23;4.83;;;17.70;99.90;;;;;;4985927;28;20600;-67
2023/07/28 07:16:20;;;;;;;5.03;4.70;;;17.70;99.90;;;;;;4993304;28;20548;-66
2023/07/28 07:18:46;;;;;;;5.33;4.93;;;17.70;99.90;;;;;;4996516;28;20196;-66
2023/07/28 07:21:13;;;;;;;4.57;4.20;;;17.70;99.90;;;;;;4977670;28;20623;-65
2023/07/28 07:23:40;;;;;;;4.80;4.50;;;17.80;99.90;;;;;;4976959;28;20319;-66
2023/07/28 07:26:25;;;;;;;5.23;4.73;;;17.80;99.90;;;;;;4976952;28;20228;-65
2023/07/28 07:28:52;;;;;;;5.63;5.23;;;17.80;99.90;;;;;;4996443;28;20259;-67
2023/07/28 07:31:21;;;;;;;5.40;4.90;;;17.80;99.90;;;;;;4996749;28;20731;-66
2023/07/28 07:33:47;;;;;;;5.23;4.83;;;17.80;99.90;;;;;;4993875;28;20958;-66
2023/07/28 07:36:14;;;;;;;5.43;5.03;;;17.80;99.90;;;;;;4988881;28;20212;-66
2023/07/28 07:38:42;;;;;;;4.83;4.43;;;17.90;99.90;;;;;;4985322;28;20220;-66
2023/07/28 07:41:11;;;;;;;4.47;4.17;;;17.90;99.90;;;;;;5001730;28;20199;-67
2023/07/28 07:43:37;;;;;;;5.47;5.07;;;17.90;99.90;;;;;;4983372;28;20283;-66
2023/07/28 07:46:04;;;;;;;4.50;4.20;;;17.90;99.90;;;;;;4997262;28;20278;-66
2023/07/28 07:48:33;;;;;;;5.40;5.00;;;17.90;99.90;;;;;;4996651;28;20200;-66
2023/07/28 07:50:59;;;;;;;4.23;3.93;;;18.00;99.90;;;;;;4997933;28;20270;-67
2023/07/28 07:53:26;;;;;;;4.37;3.97;;;18.00;99.90;;;;;;4999484;28;20212;-67
2023/07/28 07:55:53;;;;;;;4.37;4.00;;;18.10;99.90;;;;;;4979056;28;20204;-66
2023/07/28 07:58:20;;;;;;;4.63;4.30;;;18.20;99.90;;;;;;4970022;28;20262;-66
2023/07/28 08:00:47;;;;;;;3.63;3.40;;;18.20;99.90;;;;;;5002145;28;20188;-66
2023/07/28 08:03:14;;;;;;;5.60;4.10;;;18.30;99.90;;;;;;4977138;28;21478;-66
2023/07/28 08:05:42;;;;;;;3.00;2.73;;;18.30;99.90;;;;;;4999717;28;20720;-66
2023/07/28 08:08:09;;;;;;;3.50;3.20;;;18.30;99.90;;;;;;5003797;28;20267;-67
2023/07/28 08:10:36;;;;;;;3.57;2.90;;;18.30;99.90;;;;;;4980404;28;20684;-67
2023/07/28 08:13:04;;;;;;;2.93;2.73;;;18.30;99.90;;;;;;4993250;28;20201;-66
2023/07/28 08:15:31;;;;;;;3.07;2.87;;;18.40;99.90;;;;;;5004228;28;20203;-67
2023/07/28 08:17:57;;;;;;;3.33;2.80;;;18.40;99.90;;;;;;4997104;28;20197;-67
2023/07/28 08:20:25;;;;;;;4.17;2.67;;;18.40;99.90;;;;;;4995616;28;20196;-67
2023/07/28 08:22:53;;;;;;;3.53;2.97;;;18.60;99.90;;;;;;4996829;28;20207;-66
2023/07/28 08:25:20;;;;;;;3.37;3.00;;;18.60;99.90;;;;;;5005715;28;20271;-66
2023/07/28 08:27:47;;;;;;;3.30;3.00;;;18.70;99.90;;;;;;4981808;28;20208;-66
2023/07/28 08:30:15;;;;;;;2.77;2.57;;;18.70;99.90;;;;;;4982477;28;20188;-67
2023/07/28 08:32:42;;;;;;;3.87;3.60;;;18.80;99.90;;;;;;5002192;28;20306;-66
2023/07/28 08:35:09;;;;;;;3.03;2.83;;;18.90;99.90;;;;;;4990320;28;20247;-67
2023/07/28 08:37:36;;;;;;;3.80;2.87;;;18.90;99.90;;;;;;4984728;28;20579;-66
2023/07/28 08:40:06;;;;;;;2.80;2.60;;;19.00;99.90;;;;;;5000786;28;20191;-67
2023/07/28 08:42:38;;;;;;;5.10;2.40;;;19.00;99.90;;;;;;4987328;28;20672;-67
2023/07/28 08:45:06;;;;;;;2.60;2.30;;;19.10;99.90;;;;;;4989079;28;20216;-67
2023/07/28 08:47:34;;;;;;;2.40;2.30;;;19.00;99.90;;;;;;5000823;28;20593;-67
2023/07/28 08:50:01;;;;;;;2.90;2.53;;;19.00;99.90;;;;;;4993700;28;20197;-67
2023/07/28 08:52:28;;;;;;;2.70;2.50;;;19.10;99.90;;;;;;4997117;28;20204;-67
2023/07/28 08:54:55;;;;;;;2.57;2.20;;;19.10;99.90;;;;;;4999194;28;20688;-67
2023/07/28 08:57:23;;;;;;;2.03;1.93;;;19.20;99.90;;;;;;4983520;28;20289;-67
2023/07/28 08:59:50;;;;;;;2.53;2.33;;;19.20;99.90;;;;;;4992246;28;20204;-67
2023/07/28 09:02:19;;;;;;;2.03;1.93;;;19.20;99.90;;;;;;5002973;28;20236;-67
2023/07/28 09:04:47;;;;;;;2.03;1.90;;;19.20;99.90;;;;;;4996237;28;20228;-67
2023/07/28 09:07:15;;;;;;;2.40;2.20;;;19.20;99.90;;;;;;4986971;28;20212;-67
2023/07/28 09:09:42;;;;;;;2.33;2.23;;;19.20;99.90;;;;;;4992261;28;20201;-67
2023/07/28 09:12:09;;;;;;;2.10;2.00;;;19.20;99.90;;;;;;4980755;28;20216;-68
2023/07/28 09:14:38;;;;;;;2.42;2.30;;;19.20;99.90;;;;;;4985744;28;20225;-67
2023/07/28 09:17:09;;;;;;;2.00;1.90;;;19.20;99.90;;;;;;4983272;28;20262;-67
2023/07/28 09:19:50;;;;;;;2.30;2.10;;;19.20;99.90;;;;;;4984052;28;20219;-67
2023/07/28 09:22:18;;;;;;;2.70;2.50;;;19.20;99.90;;;;;;4992867;28;21136;-70
2023/07/28 09:24:44;;;;;;;3.10;2.10;;;19.30;99.90;;;;;;4996153;28;20228;-72
2023/07/28 09:27:21;;;;;;;2.07;1.97;;;19.40;99.90;;;;;;4980104;28;21995;-71
2023/07/28 09:29:50;;;;;;;2.93;2.80;;;19.50;99.90;;;;;;5002011;28;20200;-72
2023/07/28 09:32:26;;;;;;;2.20;2.00;;;19.50;99.90;;;;;;4988929;28;20216;-71
2023/07/28 09:35:08;;;;;;;2.70;2.50;;;19.60;99.90;;;;;;4982174;28;20319;-73
2023/07/28 09:37:38;;;;;;;3.00;2.80;;;19.70;99.90;;;;;;5000023;28;20886;-70
2023/07/28 09:40:10;;;;;;;2.15;2.05;;;19.70;99.90;;;;;;4996322;28;20200;-70
2023/07/28 09:42:37;;;;;;;2.75;2.50;;;19.70;99.90;;;;;;4975149;28;20213;-70
2023/07/28 09:45:06;;;;;;;2.58;2.40;;;19.60;99.90;;;;;;4999147;28;21059;-71
2023/07/28 09:47:34;;;;;;;2.60;2.38;;;19.70;99.90;;;;;;4985822;28;20235;-70
2023/07/28 09:50:04;;;;;;;2.50;2.30;;;19.80;99.90;;;;;;4995596;28;20197;-70
2023/07/28 09:52:35;;;;;;;3.03;2.30;;;19.90;99.90;;;;;;4987839;28;20212;-70
2023/07/28 09:55:08;;;;;;;1.98;1.88;;;19.90;99.90;;;;;;4995068;28;20599;-70
2023/07/28 09:57:40;;;;;;;2.40;1.95;;;19.90;99.90;;;;;;4992738;28;20192;-70
2023/07/28 10:00:11;;;;;;;2.45;2.25;;;20.00;99.90;;;;;;4969983;28;20212;-71
2023/07/28 10:02:41;;;;;;;2.17;1.70;;;20.00;99.90;;;;;;4985818;28;20209;-70
2023/07/28 10:05:10;;;;;;;2.75;2.55;;;20.00;99.90;;;;;;4994051;28;20325;-72
2023/07/28 10:07:39;;;;;;;2.15;2.05;;;20.10;99.90;;;;;;4991117;28;20244;-70
2023/07/28 10:10:10;;;;;;;2.30;2.10;;;20.10;99.90;;;;;;4985405;28;20852;-71
2023/07/28 10:12:46;;;;;;;2.00;1.90;;;20.00;99.90;;;;;;5001291;28;20215;-71
2023/07/28 10:15:16;;;;;;;3.13;2.55;;;20.00;99.90;;;;;;4979161;28;20219;-71
2023/07/28 10:17:47;;;;;;;3.85;2.10;;;20.00;99.90;;;;;;4998242;28;20202;-71
2023/07/28 10:20:32;;;;;;;2.20;2.00;;;20.10;99.90;;;;;;4988884;28;20212;-71
2023/07/28 10:23:12;;;;;;;2.28;2.17;;;20.30;99.90;;;;;;4986731;28;20201;-70
2023/07/28 10:25:40;;;;;;;2.13;1.98;;;20.30;99.90;;;;;;4995282;28;21762;-71
2023/07/28 10:28:09;;;;;;;2.92;2.58;;;20.40;99.90;;;;;;4999011;28;20939;-69
2023/07/28 10:30:39;;;;;;;2.85;2.22;;;20.40;99.90;;;;;;4982200;28;20847;-70
2023/07/28 10:33:06;;;;;;;1.77;1.67;;;20.40;99.90;;;;;;4991133;28;20205;-70
2023/07/28 10:35:34;;;;;;;1.73;1.63;;;20.40;99.90;;;;;;4980687;28;20200;-70
2023/07/28 10:38:31;;;;;;;1.80;1.70;;;20.40;99.90;;;;;;4987939;28;20221;-70
2023/07/28 10:41:09;;;;;;;1.83;1.73;;;20.50;99.90;;;;;;4981957;28;20215;-70
2023/07/28 10:43:37;;;;;;;1.60;1.50;;;20.60;99.90;;;;;;4998075;28;20239;-70
2023/07/28 10:46:05;;;;;;;2.05;1.70;;;20.60;99.90;;;;;;4974082;28;20236;-70
2023/07/28 10:48:33;;;;;;;3.22;1.83;;;20.60;99.90;;;;;;4999506;28;20207;-70
2023/07/28 10:51:00;;;;;;;1.48;1.38;;;20.50;99.90;;;;;;4982618;28;20367;-70
2023/07/28 10:53:27;;;;;;;1.70;1.60;;;20.40;99.90;;;;;;4990588;28;20248;-70
2023/07/28 10:55:54;;;;;;;1.83;1.73;;;20.40;99.90;;;;;;4985897;28;20201;-71
2023/07/28 10:58:21;;;;;;;1.70;1.60;;;20.40;99.90;;;;;;4996538;28;20263;-70
2023/07/28 11:00:48;;;;;;;1.80;1.70;;;20.30;99.90;;;;;;4978713;28;20205;-71
2023/07/28 11:03:16;;;;;;;1.90;1.80;;;20.30;99.90;;;;;;5000241;28;20783;-70
2023/07/28 11:05:43;;;;;;;1.70;1.60;;;20.40;99.90;;;;;;4981692;28;20262;-72
2023/07/28 11:08:11;;;;;;;1.92;1.83;;;20.40;99.90;;;;;;4996094;28;20216;-71
2023/07/28 11:10:38;;;;;;;1.70;1.60;;;20.40;99.90;;;;;;4995651;28;20204;-72
2023/07/28 11:13:07;;;;;;;1.83;1.73;;;20.50;99.90;;;;;;4988110;28;20209;-71
2023/07/28 11:15:34;;;;;;;2.00;1.90;;;20.60;99.90;;;;;;5000471;28;20272;-71
2023/07/28 11:18:04;;;;;;;1.80;1.70;;;20.50;99.90;;;;;;4969471;28;20199;-70
2023/07/28 11:20:34;;;;;;;1.33;1.30;;;20.50;99.90;;;;;;4992859;28;20216;-71
2023/07/28 11:23:03;;;;;;;2.00;1.90;;;20.60;99.90;;;;;;4994573;28;20897;-71
2023/07/28 11:25:32;;;;;;;2.20;2.10;;;20.70;99.90;;;;;;4995112;28;20687;-71
2023/07/28 11:28:01;;;;;;;1.88;1.77;;;20.80;99.90;;;;;;4996756;28;20226;-70
2023/07/28 11:30:28;;;;;;;1.85;1.75;;;20.80;99.90;;;;;;4982135;28;20576;-71
2023/07/28 11:32:55;;;;;;;1.73;1.63;;;20.80;99.90;;;;;;4983150;28;20208;-71
2023/07/28 11:35:23;;;;;;;2.22;2.00;;;20.90;99.90;;;;;;4998869;28;20660;-71
2023/07/28 11:37:54;;;;;;;1.60;1.50;;;21.00;99.90;;;;;;4982353;28;20818;-70
2023/07/28 11:40:22;;;;;;;1.30;1.20;;;21.10;99.90;;;;;;5004351;28;20201;-71
2023/07/28 11:42:52;;;;;;;1.58;1.48;;;21.20;99.90;;;;;;5003389;28;20556;-70
2023/07/28 11:45:19;;;;;;;2.45;1.70;;;21.30;99.90;;;;;;4987726;28;20227;-70
2023/07/28 11:47:55;;;;;;;2.08;1.48;;;21.30;99.90;;;;;;4988139;28;20262;-69
2023/07/28 11:50:27;;;;;;;1.95;1.85;;;21.40;99.90;;;;;;4990280;28;20204;-71
2023/07/28 11:52:56;;;;;;;1.50;1.45;;;21.50;99.90;;;;;;4995278;28;20216;-70
2023/07/28 11:55:23;;;;;;;1.30;1.20;;;21.50;99.90;;;;;;5001985;28;20605;-70
2023/07/28 11:57:52;;;;;;;2.08;1.98;;;21.50;99.90;;;;;;4993668;28;20192;-70
2023/07/28 12:00:26;;;;;;;1.27;1.27;;;21.60;99.90;;;;;;4998131;28;20212;-71
2023/07/28 12:03:03;;;;;;;1.67;1.58;;;21.70;99.90;;;;;;4981415;28;20228;-70
2023/07/28 12:05:30;;;;;;;1.73;1.63;;;21.80;99.90;;;;;;4992784;28;20234;-70
2023/07/28 12:07:59;;;;;;;2.05;1.90;;;21.90;99.90;;;;;;5000331;28;20235;-70
2023/07/28 12:10:26;;;;;;;1.70;1.60;;;21.90;99.90;;;;;;4989744;28;20204;-71
2023/07/28 12:12:52;;;;;;;2.00;1.90;;;22.00;99.90;;;;;;5003916;28;20943;-70
2023/07/28 12:15:26;;;;;;;2.35;2.25;;;21.90;99.90;;;;;;4996227;28;20224;-70
2023/07/28 12:18:05;;;;;;;1.98;1.88;;;22.00;99.90;;;;;;4973961;28;20204;-69
2023/07/28 12:20:41;;;;;;;2.00;1.90;;;22.00;99.90;;;;;;4997847;28;20677;-70
2023/07/28 12:23:10;;;;;;;2.75;1.95;;;22.10;99.90;;;;;;4990293;28;20705;-70
2023/07/28 12:25:37;;;;;;;1.88;1.77;;;22.10;99.90;;;;;;4978213;28;20212;-70
2023/07/28 12:28:05;;;;;;;2.15;2.05;;;22.10;99.90;;;;;;5002643;28;20209;-70
2023/07/28 12:30:32;;;;;;;2.95;1.75;;;22.20;99.90;;;;;;4985557;28;20377;-66
2023/07/28 12:33:00;;;;;;;2.60;2.40;;;22.20;99.90;;;;;;4978757;28;20659;-67
2023/07/28 12:35:30;;;;;;;2.13;2.03;;;22.10;99.90;;;;;;4996510;28;20253;-66
2023/07/28 12:38:00;;;;;;;3.03;2.40;;;22.20;99.90;;;;;;4995338;28;20271;-67
2023/07/28 12:40:29;;;;;;;2.33;2.22;;;22.30;99.90;;;;;;4986837;28;20644;-66
2023/07/28 12:42:56;;;;;;;2.20;2.10;;;22.40;99.90;;;;;;5003781;28;20715;-66
2023/07/28 12:45:25;;;;;;;2.47;2.28;;;22.40;99.90;;;;;;4986404;28;20216;-66
2023/07/28 12:47:53;;;;;;;1.80;1.70;;;22.40;99.90;;;;;;4978339;28;20789;-66
2023/07/28 12:50:20;;;;;;;2.30;2.20;;;22.40;99.90;;;;;;5003942;28;20204;-66
2023/07/28 12:52:48;;;;;;;1.80;1.70;;;22.50;99.90;;;;;;4992369;28;20768;-66
2023/07/28 12:55:15;;;;;;;4.40;1.65;;;22.60;99.90;;;;;;4998907;28;20216;-66
2023/07/28 12:57:43;;;;;;;1.95;1.85;;;22.60;99.90;;;;;;4989261;28;20192;-67
2023/07/28 13:00:13;;;;;;;2.47;2.38;;;22.50;99.90;;;;;;4997369;28;20536;-67
2023/07/28 13:02:40;;;;;;;1.73;1.63;;;22.40;99.90;;;;;;4983704;28;20231;-66
2023/07/28 13:05:10;;;;;;;2.00;1.90;;;22.40;99.90;;;;;;4984296;28;20232;-70